• Join FlightAware (Why Join?)
  • Login
  • US Flag 
02:28PM EDT


 

Airport Tracker/Info


-or-


 

Live Flight TrackerFlight Track Log ✈ DAL6036 ✈ 29-Apr-2013 ✈ KDTW - KTVC

Flight Track Log - Related Links

Times and Time Zones

All times are in EDT time to prevent confusion due to time zone crossing. See the DAL6036 flight status page for this flight to view local times or setup timezone preferences in your user account.

Time Position Orientation Groundspeed Altitude Reporting Facility
EDT Latitude Longitude Course Direction KTS MPH feet Rate Location/Type
08:45PM 42.1994 -83.3581 North 161 185 1,200  Level Cleveland Center
08:46PM 42.1819 -83.3881 232° Southwest 187 215 2,500 2,340 Climbing Cleveland Center
08:47PM 42.1453 -83.4453 229° Southwest 202 232 5,000 2,220 Climbing Cleveland Center
08:48PM 42.4819 -83.3500 North  Level FlightAware Approximate
08:48PM 42.1583 -83.5019 287° West 221 254 6,800  Level Cleveland Center
08:48PM 42.1986 -83.5572 315° West 220 253 8,900 1,860 Climbing Cleveland Center
08:49PM 42.5759 -83.3500 North  Level FlightAware Approximate
08:49PM 42.2408 -83.6153 315° West 258 297 10,300  Level Cleveland Center
08:50PM 42.6699 -83.3500 North  Level FlightAware Approximate
08:50PM 42.3033 -83.6208 356° North 336 387 10,900  Level Cleveland Center
08:51PM 42.7338 -83.3500 North  Level FlightAware Approximate
08:51PM 42.4089 -83.5725 19° North 348 400 12,600  Level Cleveland Center
08:52PM 42.4953 -83.5372 17° North 348 400 13,900 1,080 Climbing Cleveland Center
08:53PM 42.5814 -83.5047 16° North 341 392 14,800 900 Climbing Cleveland Center
08:54PM 42.6658 -83.4689 17° North 323 372 15,800 600 Climbing Cleveland Center
08:55PM 42.7478 -83.4361 16° North 318 366 16,000 60 Climbing Cleveland Center
08:56PM 42.8236 -83.4056 16° North 300 345 16,000  Level Cleveland Center
08:57PM 42.8975 -83.3750 17° North 283 326 16,000  Level Cleveland Center
08:58PM 42.9728 -83.3669 North 278 320 16,000  Level Cleveland Center
08:59PM 43.0519 -83.3675 360° North 278 320 16,000  Level Cleveland Center
09:00PM 43.1131 -83.4244 326° Northwest 263 303 16,000  Level Cleveland Center
09:01PM 43.1589 -83.5006 310° West 250 288 16,000  Level Cleveland Center
09:02PM 43.2072 -83.5739 312° West 256 295 16,000  Level Cleveland Center
09:03PM 43.2553 -83.6475 312° West 261 300 16,000  Level Cleveland Center
09:04PM 43.3033 -83.7242 311° West 261 300 16,000  Level Cleveland Center
09:05PM 43.3492 -83.7978 311° West 261 300 16,000  Level Cleveland Center
09:07PM 43.4250 -83.9103 313° West 255 293 16,000  Level Minneapolis Center
09:08PM 43.4811 -83.9986 311° West 255 293 16,000  Level Minneapolis Center
09:09PM 43.5281 -84.0753 310° West 260 299 16,100 -540 Climbing Minneapolis Center
09:10PM 43.5856 -84.1494 317° Northwest 274 315 14,900 -1,440 Descending Minneapolis Center
09:11PM 43.6469 -84.2256 318° Northwest 290 334 13,200 -1,320 Descending Minneapolis Center
09:12PM 43.7067 -84.3003 318° Northwest 291 335 12,200 -540 Descending Minneapolis Center
09:13PM 43.7553 -84.3606 318° Northwest 253 291 12,100 -300 Descending Minneapolis Center
09:14PM 43.8128 -84.4336 317° Northwest 237 273 11,600 -900 Descending Minneapolis Center
09:15PM 43.8592 -84.4928 317° Northwest 232 267 10,300 -1,440 Descending Minneapolis Center
09:16PM 43.9028 -84.5489 317° Northwest 221 254 8,700 -1,500 Descending Minneapolis Center
09:18PM 43.9497 -84.6106 317° Northwest 228 262 7,200 -1,320 Descending Minneapolis Center
09:19PM 44.0006 -84.6747 318° Northwest 229 264 6,000 -540 Descending Minneapolis Center
09:20PM 44.0422 -84.7289 317° Northwest 213 245 6,100  Climbing Minneapolis Center
09:21PM 44.0894 -84.7903 317° Northwest 223 257 6,100  Level Minneapolis Center
09:22PM 44.1506 -84.8672 318° Northwest 242 278 6,100  Level Minneapolis Center
09:23PM 44.2000 -84.9331 316° Northwest 246 283 6,100 -60 Level Minneapolis Center
09:24PM 44.2519 -84.9969 319° Northwest 248 285 6,000 -60 Descending Minneapolis Center
09:25PM 44.3119 -85.0483 329° Northwest 251 289 6,000  Level Minneapolis Center
09:26PM 44.3728 -85.0950 331° Northwest 252 290 6,000  Level Minneapolis Center
09:27PM 44.4461 -85.0972 359° North 258 297 6,000 -180 Level Minneapolis Center
09:28PM 44.5178 -85.1058 355° North 258 297 5,700 -780 Descending Minneapolis Center
09:29PM 44.5792 -85.2044 311° West 244 281 4,300 -1,200 Descending Minneapolis Center
09:30PM 44.6233 -85.2686 314° West 234 269 3,300 -720 Descending Minneapolis Center
09:31PM 44.6681 -85.3336 314° West 232 267 2,700 -540 Descending Minneapolis Center